Flight Track Log - Related Links

Times and Time Zones

All times are in EDT time to prevent confusion due to time zone crossing. See the UAL1208 flight status page for this flight to view local times or setup timezone preferences in your user account.

Time Position Orientation Groundspeed Altitude Reporting Facility
EDT Latitude Longitude Course Direction KTS MPH feet Rate Location/Type
Mon 07:19:07 PM 42.3140 -70.9780 124° Southeast 220 253 2,500  Level FlightAware ADS-B
Mon 07:19:27 PM 42.3070 -70.9470 107° East 229 264 3,700 2,533 Climbing FlightAware ADS-B
Mon 07:19:52 PM 42.3130 -70.9100 78° East 262 302 4,400 2,667 Climbing FlightAware ADS-B
Mon 07:20:12 PM 42.3190 -70.8780 76° East 262 302 5,700 3,273 Climbing FlightAware ADS-B
Mon 07:20:47 PM 42.3300 -70.8230 75° East 276 318 7,400 2,900 Climbing FlightAware ADS-B
Mon 07:21:12 PM 42.3390 -70.7770 75° East 284 327 8,600 3,067 Climbing FlightAware ADS-B
Mon 07:21:32 PM 42.3550 -70.7510 50° Northeast 287 330 9,700 2,800 Climbing FlightAware ADS-B
Mon 07:21:42 PM 42.3660 -70.7440 25° Northeast 283 326 10,000 1,309 Climbing FlightAware ADS-B
Mon 07:22:27 PM 42.4320 -70.7180 16° North 343 395 10,900 1,200 Climbing FlightAware ADS-B
Mon 07:22:52 PM 42.4740 -70.7270 351° North 369 425 11,400 1,886 Climbing FlightAware ADS-B
Mon 07:23:37 PM 42.5420 -70.7870 327° Northwest 391 450 13,100 2,400 Climbing FlightAware ADS-B
Mon 07:24:17 PM 42.5850 -70.8710 305° West 406 467 14,800 2,475 Climbing FlightAware ADS-B
Mon 07:24:57 PM 42.6270 -70.9560 304° West 414 476 16,400 2,471 Climbing FlightAware ADS-B
Mon 07:25:42 PM 42.6740 -71.0550 303° West 418 481 18,300 2,400 Climbing FlightAware ADS-B
Mon 07:26:22 PM 42.7170 -71.1420 304° West 417 480 19,800 2,118 Climbing FlightAware ADS-B
Mon 07:27:07 PM 42.7610 -71.2460 300° West 424 488 21,300 1,976 Climbing FlightAware ADS-B
Mon 07:27:47 PM 42.7760 -71.3530 281° West 432 497 22,600 1,725 Climbing FlightAware ADS-B
Mon 07:28:27 PM 42.7870 -71.4600 278° West 438 504 23,600 1,482 Climbing FlightAware ADS-B
Mon 07:29:12 PM 42.7990 -71.5840 278° West 447 514 24,700 1,482 Climbing FlightAware ADS-B
Mon 07:29:52 PM 42.8100 -71.6950 278° West 451 519 25,700 1,482 Climbing FlightAware ADS-B
Mon 07:30:37 PM 42.8220 -71.8240 277° West 454 522 26,800 1,765 Climbing FlightAware ADS-B
Mon 07:31:17 PM 42.8330 -71.9370 278° West 444 511 28,200 2,047 Climbing FlightAware ADS-B
Mon 07:32:02 PM 42.8450 -72.0620 278° West 437 503 29,700 1,765 Climbing FlightAware ADS-B
Mon 07:32:42 PM 42.8550 -72.1700 277° West 435 501 30,700 1,360 Climbing FlightAware ADS-B
Mon 07:33:17 PM 42.8630 -72.2560 277° West 434 499 31,400 1,341 Climbing FlightAware ADS-B
Mon 07:34:07 PM 42.8770 -72.4030 277° West 434 499 32,600 1,400 Climbing FlightAware ADS-B
Mon 07:34:47 PM 42.8870 -72.5130 277° West 431 496 33,500 1,341 Climbing FlightAware ADS-B
Mon 07:35:32 PM 42.8980 -72.6360 277° West 427 491 34,500 1,125 Climbing FlightAware ADS-B
Mon 07:36:07 PM 42.9060 -72.7250 277° West 427 491 35,000 900 Climbing FlightAware ADS-B
Mon 07:36:52 PM 42.9170 -72.8460 277° West 428 493 35,700 667 Climbing FlightAware ADS-B
Mon 07:37:37 PM 42.9270 -72.9650 277° West 433 498 36,000 225 Climbing FlightAware ADS-B
Mon 07:38:12 PM 42.9350 -73.0550 277° West 433 498 36,000  Level FlightAware ADS-B
Mon 07:38:57 PM 42.9450 -73.1760 276° West 434 499 36,000  Level FlightAware ADS-B
Mon 07:39:37 PM 42.9540 -73.2860 276° West 434 499 36,000  Level FlightAware ADS-B
Mon 07:40:37 PM 42.9680 -73.4490 277° West 434 499 36,000  Level FlightAware ADS-B
Mon 07:41:32 PM 42.9790 -73.5900 276° West 434 499 36,000  Level FlightAware ADS-B
Mon 07:42:12 PM 42.9860 -73.6820 276° West 434 499 36,000  Level FlightAware ADS-B
Mon 07:42:47 PM 42.9970 -73.8090 277° West 432 497 36,000  Level FlightAware ADS-B
Mon 07:43:42 PM 43.0090 -73.9610 276° West 432 497 36,000  Level FlightAware ADS-B
Mon 07:44:12 PM 43.0150 -74.0400 276° West 435 501 36,000  Level FlightAware ADS-B
Mon 07:45:02 PM 43.0260 -74.1780 276° West 437 503 36,000  Level FlightAware ADS-B
Mon 07:45:47 PM 43.0340 -74.2870 276° West 437 503 36,000  Level FlightAware ADS-B
Mon 07:46:27 PM 43.0430 -74.4060 276° West 437 503 36,000  Level FlightAware ADS-B
Mon 07:47:07 PM 43.0510 -74.5160 276° West 437 503 36,000  Level FlightAware ADS-B
Mon 07:47:57 PM 43.0600 -74.6540 275° West 438 504 36,000  Level FlightAware ADS-B
Mon 07:48:37 PM 43.0680 -74.7630 276° West 438 504 36,000  Level FlightAware ADS-B
Mon 07:49:32 PM 43.0790 -74.9130 276° West 437 503 36,000  Level FlightAware ADS-B
Mon 07:50:12 PM 43.0860 -75.0220 275° West 435 501 36,000  Level FlightAware ADS-B
Mon 07:50:52 PM 43.0930 -75.1310 275° West 434 499 36,000  Level FlightAware ADS-B
Mon 07:51:37 PM 43.1020 -75.2550 276° West 434 499 36,000  Level FlightAware ADS-B
Mon 07:52:17 PM 43.1090 -75.3650 275° West 435 501 36,000  Level FlightAware ADS-B
Mon 07:53:02 PM 43.1170 -75.4840 275° West 434 499 36,000  Level FlightAware ADS-B
Mon 07:53:42 PM 43.1240 -75.5970 275° West 434 499 36,000  Level FlightAware ADS-B
Mon 07:54:22 PM 43.1310 -75.7060 275° West 433 498 36,000  Level FlightAware ADS-B
Mon 07:55:07 PM 43.1380 -75.8280 275° West 433 498 36,000  Level FlightAware ADS-B
Mon 07:55:47 PM 43.1450 -75.9360 275° West 433 498 36,000  Level FlightAware ADS-B
Mon 07:56:27 PM 43.1510 -76.0460 274° West 434 499 36,000  Level FlightAware ADS-B
Mon 07:57:12 PM 43.1580 -76.1680 275° West 436 502 36,000  Level FlightAware ADS-B
Mon 07:57:52 PM 43.1640 -76.2790 274° West 439 505 36,000  Level FlightAware ADS-B
Mon 07:58:37 PM 43.1690 -76.3950 273° West 439 505 36,000  Level FlightAware ADS-B
Mon 07:59:17 PM 43.1730 -76.5160 273° West 441 507 36,000  Level FlightAware ADS-B
Mon 07:59:57 PM 43.1780 -76.6290 274° West 443 510 36,000  Level FlightAware ADS-B
Mon 08:00:42 PM 43.1830 -76.7540 273° West 444 511 36,000  Level FlightAware ADS-B
Mon 08:01:22 PM 43.1870 -76.8680 273° West 445 512 36,000  Level FlightAware ADS-B
Mon 08:02:02 PM 43.1910 -76.9800 273° West 446 513 36,000  Level FlightAware ADS-B
Mon 08:02:47 PM 43.1960 -77.1080 273° West 446 513 36,000  Level FlightAware ADS-B
Mon 08:03:27 PM 43.2000 -77.2200 273° West 447 514 36,000  Level FlightAware ADS-B
Mon 08:04:12 PM 43.2040 -77.3350 273° West 446 513 36,000  Level FlightAware ADS-B
Mon 08:04:52 PM 43.2080 -77.4590 273° West 446 513 36,000  Level FlightAware ADS-B
Mon 08:05:37 PM 43.2120 -77.5850 273° West 444 511 36,000  Level FlightAware ADS-B
Mon 08:06:17 PM 43.2150 -77.6970 272° West 442 509 36,000  Level FlightAware ADS-B
Mon 08:06:57 PM 43.2180 -77.8080 272° West 440 506 36,000  Level FlightAware ADS-B
Mon 08:07:42 PM 43.2220 -77.9270 273° West 437 503 36,000  Level FlightAware ADS-B
Mon 08:08:22 PM 43.2250 -78.0430 272° West 433 498 36,000  Level FlightAware ADS-B
Mon 08:09:07 PM 43.2280 -78.1650 272° West 425 489 36,000  Level FlightAware ADS-B
Mon 08:09:47 PM 43.2310 -78.2730 272° West 418 481 36,000  Level FlightAware ADS-B
Mon 08:10:32 PM 43.2340 -78.3860 272° West 416 479 36,000  Level FlightAware ADS-B
Mon 08:11:12 PM 43.2360 -78.4940 271° West 415 478 36,000  Level FlightAware ADS-B
Mon 08:11:52 PM 43.2390 -78.6010 272° West 418 481 36,000  Level FlightAware ADS-B
Mon 08:12:37 PM 43.2410 -78.7200 271° West 421 484 36,000  Level FlightAware ADS-B
Mon 08:13:17 PM 43.2430 -78.8230 272° West 422 486 36,000  Level FlightAware ADS-B
Mon 08:14:02 PM 43.2460 -78.9450 272° West 425 489 36,000  Level FlightAware ADS-B
Mon 08:14:42 PM 43.2480 -79.0530 271° West 426 490 36,000  Level FlightAware ADS-B
Mon 08:15:22 PM 43.2500 -79.1630 271° West 425 489 36,000  Level FlightAware ADS-B
Mon 08:16:07 PM 43.2520 -79.2850 271° West 425 489 36,000  Level FlightAware ADS-B
Mon 08:16:47 PM 43.2530 -79.3910 271° West 426 490 36,000  Level FlightAware ADS-B
Mon 08:17:32 PM 43.2550 -79.5110 271° West 426 490 36,000  Level FlightAware ADS-B
Mon 08:18:12 PM 43.2570 -79.6140 272° West 426 490 36,000  Level FlightAware ADS-B
Mon 08:18:52 PM 43.2580 -79.7290 271° West 425 489 36,000  Level FlightAware ADS-B
Mon 08:19:37 PM 43.2590 -79.8460 271° West 425 489 36,000  Level FlightAware ADS-B
Mon 08:20:17 PM 43.2610 -79.9560 271° West 424 488 36,000  Level FlightAware ADS-B
Mon 08:21:02 PM 43.2620 -80.0750 271° West 422 486 36,000  Level FlightAware ADS-B
Mon 08:21:42 PM 43.2630 -80.1830 271° West 421 484 36,000  Level FlightAware ADS-B
Mon 08:22:22 PM 43.2630 -80.2810 270° West 420 483 36,000  Level FlightAware ADS-B
Mon 08:23:07 PM 43.2640 -80.4010 271° West 419 482 36,000  Level FlightAware ADS-B
Mon 08:23:47 PM 43.2650 -80.5130 271° West 418 481 36,000  Level FlightAware ADS-B
Mon 08:24:27 PM 43.2660 -80.6190 271° West 417 480 36,000  Level FlightAware ADS-B
Mon 08:25:12 PM 43.2660 -80.7340 270° West 417 480 36,000  Level FlightAware ADS-B
Mon 08:25:52 PM 43.2660 -80.8430 270° West 417 480 36,000  Level FlightAware ADS-B
Mon 08:26:37 PM 43.2670 -80.9630 271° West 416 479 36,000  Level FlightAware ADS-B
Mon 08:27:17 PM 43.2670 -81.0680 270° West 415 478 36,000  Level FlightAware ADS-B
Mon 08:27:57 PM 43.2670 -81.1700 270° West 415 478 36,000  Level FlightAware ADS-B
Mon 08:28:42 PM 43.2670 -81.2910 270° West 416 479 36,000  Level FlightAware ADS-B
Mon 08:29:22 PM 43.2660 -81.3940 269° West 420 483 36,000  Level FlightAware ADS-B
Mon 08:30:02 PM 43.2660 -81.5040 270° West 422 486 36,000  Level FlightAware ADS-B
Mon 08:30:47 PM 43.2660 -81.6220 270° West 423 487 36,000  Level FlightAware ADS-B
Mon 08:31:27 PM 43.2650 -81.7300 269° West 422 486 36,000  Level FlightAware ADS-B
Mon 08:32:07 PM 43.2650 -81.8340 270° West 422 486 36,000  Level FlightAware ADS-B
Mon 08:32:52 PM 43.2640 -81.9510 269° West 422 486 36,000  Level FlightAware ADS-B
Mon 08:33:32 PM 43.2630 -82.0620 269° West 422 486 36,000  Level FlightAware ADS-B
Mon 08:34:12 PM 43.2620 -82.1680 269° West 422 486 36,000  Level FlightAware ADS-B
Mon 08:34:57 PM 43.2610 -82.2910 269° West 422 486 36,000  Level FlightAware ADS-B
Mon 08:35:42 PM 43.2600 -82.4140 269° West 423 487 36,000  Level FlightAware ADS-B
Mon 08:36:37 PM 43.2580 -82.5470 269° West 423 487 36,000  Level FlightAware ADS-B
Mon 08:37:12 PM 43.2570 -82.6380 269° West 423 487 36,000  Level FlightAware ADS-B
Mon 08:38:02 PM 43.2560 -82.7730 269° West 423 487 36,000  Level FlightAware ADS-B
Mon 08:38:42 PM 43.2560 -82.8740 270° West 422 486 36,000  Level FlightAware ADS-B
Mon 08:39:17 PM 43.2560 -82.9690 270° West 420 483 36,000  Level FlightAware ADS-B
Mon 08:40:07 PM 43.2550 -83.1000 269° West 417 480 36,000  Level FlightAware ADS-B
Mon 08:40:47 PM 43.2550 -83.2080 270° West 414 476 36,000  Level FlightAware ADS-B
Mon 08:41:32 PM 43.2540 -83.3410 269° West 412 474 36,000  Level FlightAware ADS-B
Mon 08:42:07 PM 43.2530 -83.4160 269° West 412 474 36,000  Level FlightAware ADS-B
Mon 08:42:52 PM 43.2520 -83.5340 269° West 413 475 36,000  Level FlightAware ADS-B
Mon 08:43:37 PM 43.2520 -83.6460 270° West 416 479 36,000  Level FlightAware ADS-B
Mon 08:44:17 PM 43.2510 -83.7450 269° West 417 480 36,000  Level FlightAware ADS-B
Mon 08:44:57 PM 43.2490 -83.8660 269° West 418 481 36,000  Level FlightAware ADS-B
Mon 08:45:42 PM 43.2480 -83.9820 269° West 420 483 36,000  Level FlightAware ADS-B
Mon 08:46:17 PM 43.2470 -84.0680 269° West 421 484 36,000  Level FlightAware ADS-B
Mon 08:47:07 PM 43.2450 -84.2300 269° West 424 488 36,000  Level FlightAware ADS-B
Mon 08:47:47 PM 43.2430 -84.3360 269° West 426 490 36,000  Level FlightAware ADS-B
Mon 08:48:32 PM 43.2410 -84.4560 269° West 428 493 36,000  Level FlightAware ADS-B
Mon 08:49:12 PM 43.2400 -84.5650 269° West 430 495 36,000  Level FlightAware ADS-B
Mon 08:49:52 PM 43.2380 -84.6730 269° West 431 496 36,000  Level FlightAware ADS-B
Mon 08:50:37 PM 43.2360 -84.7980 269° West 430 495 36,000  Level FlightAware ADS-B
Mon 08:51:17 PM 43.2330 -84.9060 268° West 429 494 36,000  Level FlightAware ADS-B
Mon 08:52:02 PM 43.2310 -85.0260 269° West 427 491 36,000  Level FlightAware ADS-B
Mon 08:52:42 PM 43.2290 -85.1380 269° West 426 490 36,000  Level FlightAware ADS-B
Mon 08:53:22 PM 43.2260 -85.2420 268° West 425 489 36,000  Level FlightAware ADS-B
Mon 08:54:07 PM 43.2240 -85.3640 269° West 424 488 36,000  Level FlightAware ADS-B
Mon 08:54:47 PM 43.2210 -85.4710 268° West 423 487 36,000  Level FlightAware ADS-B
Mon 08:55:27 PM 43.2180 -85.5800 268° West 422 486 36,000  Level FlightAware ADS-B
Mon 08:56:12 PM 43.2150 -85.6970 268° West 422 486 36,000  Level FlightAware ADS-B
Mon 08:56:52 PM 43.2120 -85.8080 268° West 421 484 36,000  Level FlightAware ADS-B
Mon 08:57:37 PM 43.2090 -85.9260 268° West 420 483 36,000  Level FlightAware ADS-B
Mon 08:58:17 PM 43.2060 -86.0270 268° West 420 483 36,000  Level FlightAware ADS-B
Mon 08:59:02 PM 43.2020 -86.1480 267° West 420 483 36,000  Level FlightAware ADS-B
Mon 08:59:42 PM 43.1990 -86.2580 268° West 419 482 36,000  Level FlightAware ADS-B
Mon 09:00:22 PM 43.1950 -86.3550 267° West 418 481 36,000  Level FlightAware ADS-B
Mon 09:01:07 PM 43.1910 -86.4790 268° West 418 481 36,000  Level FlightAware ADS-B
Mon 09:01:47 PM 43.1880 -86.5870 268° West 417 480 36,000  Level FlightAware ADS-B
Mon 09:02:27 PM 43.1840 -86.6900 267° West 416 479 36,000  Level FlightAware ADS-B
Mon 09:03:12 PM 43.1800 -86.8030 267° West 415 478 36,000  Level FlightAware ADS-B
Mon 09:03:52 PM 43.1760 -86.9090 267° West 416 479 36,000  Level FlightAware ADS-B
Mon 09:04:32 PM 43.1720 -87.0180 267° West 415 478 36,000  Level FlightAware ADS-B
Mon 09:05:17 PM 43.1680 -87.1350 267° West 416 479 36,000  Level FlightAware ADS-B
Mon 09:05:57 PM 43.1640 -87.2420 267° West 417 480 36,000  Level FlightAware ADS-B
Mon 09:06:42 PM 43.1590 -87.3600 267° West 419 482 36,000  Level FlightAware ADS-B
Mon 09:07:22 PM 43.1540 -87.4670 266° West 420 483 36,000  Level FlightAware ADS-B
Mon 09:08:02 PM 43.1490 -87.5740 266° West 421 484 36,000  Level FlightAware ADS-B
Mon 09:08:47 PM 43.1440 -87.6910 267° West 421 484 36,000  Level FlightAware ADS-B
Mon 09:09:32 PM 43.1390 -87.8110 267° West 421 484 36,000  Level FlightAware ADS-B
Mon 09:10:12 PM 43.1340 -87.9180 266° West 420 483 36,000  Level FlightAware ADS-B
Mon 09:10:57 PM 43.1290 -88.0370 267° West 419 482 36,000  Level FlightAware ADS-B
Mon 09:11:37 PM 43.1240 -88.1440 266° West 419 482 36,000  Level FlightAware ADS-B
Mon 09:12:22 PM 43.1180 -88.2610 266° West 417 480 36,000  Level FlightAware ADS-B
Mon 09:13:02 PM 43.1180 -88.3640 270° West 415 478 36,000  Level FlightAware ADS-B
Mon 09:13:42 PM 43.1200 -88.4720 271° West 416 479 36,000  Level FlightAware ADS-B
Mon 09:14:22 PM 43.1220 -88.5790 272° West 417 480 36,000  Level FlightAware ADS-B
Mon 09:15:07 PM 43.1230 -88.6970 271° West 418 481 36,000  Level FlightAware ADS-B
Mon 09:15:52 PM 43.1250 -88.8160 271° West 421 484 36,000  Level FlightAware ADS-B
Mon 09:16:32 PM 43.1260 -88.9220 271° West 422 486 36,000  Level FlightAware ADS-B
Mon 09:17:12 PM 43.1280 -89.0270 272° West 424 488 36,000  Level FlightAware ADS-B
Mon 09:17:57 PM 43.1290 -89.1450 271° West 425 489 36,000  Level FlightAware ADS-B
Mon 09:18:37 PM 43.1300 -89.2580 271° West 424 488 36,000  Level FlightAware ADS-B
Mon 09:19:22 PM 43.1310 -89.3760 271° West 423 487 36,000  Level FlightAware ADS-B
Mon 09:20:02 PM 43.1320 -89.4800 271° West 423 487 36,000  Level FlightAware ADS-B
Mon 09:20:42 PM 43.1320 -89.5890 270° West 422 486 36,000  Level FlightAware ADS-B
Mon 09:21:27 PM 43.1330 -89.7080 271° West 424 488 36,000  Level FlightAware ADS-B
Mon 09:22:07 PM 43.1330 -89.8180 270° West 425 489 36,000  Level FlightAware ADS-B
Mon 09:22:47 PM 43.1340 -89.9270 271° West 426 490 36,000  Level FlightAware ADS-B
Mon 09:23:32 PM 43.1340 -90.0440 270° West 428 493 36,000  Level FlightAware ADS-B
Mon 09:24:12 PM 43.1340 -90.1450 270° West 429 494 36,000  Level FlightAware ADS-B
Mon 09:25:12 PM 43.1350 -90.3160 271° West 432 497 36,000  Level FlightAware ADS-B
Mon 09:25:52 PM 43.1340 -90.4200 269° West 433 498 36,000  Level FlightAware ADS-B
Mon 09:26:32 PM 43.1340 -90.5350 270° West 432 497 36,000  Level FlightAware ADS-B
Mon 09:27:17 PM 43.1340 -90.6530 270° West 432 497 36,000  Level FlightAware ADS-B
Mon 09:27:52 PM 43.1340 -90.7470 270° West 432 497 36,000  Level FlightAware ADS-B
Mon 09:28:52 PM 43.1330 -90.9050 270° West 433 498 36,000  Level FlightAware ADS-B
Mon 09:29:37 PM 43.1320 -91.0350 269° West 431 496 36,000  Level FlightAware ADS-B
Mon 09:30:32 PM 43.1310 -91.1830 270° West 430 495 36,000  Level FlightAware ADS-B
Mon 09:31:12 PM 43.1300 -91.2930 269° West 430 495 36,000  Level FlightAware ADS-B
Mon 09:31:57 PM 43.1290 -91.4150 269° West 430 495 36,000  Level FlightAware ADS-B
Mon 09:32:37 PM 43.1280 -91.5260 269° West 428 493 36,000  Level FlightAware ADS-B
Mon 09:33:32 PM 43.1260 -91.6750 269° West 427 491 36,000  Level FlightAware ADS-B
Mon 09:34:17 PM 43.1250 -91.7990 269° West 426 490 36,000  Level FlightAware ADS-B
Mon 09:34:57 PM 43.1230 -91.9080 269° West 426 490 36,000  Level FlightAware ADS-B
Mon 09:35:42 PM 43.1220 -92.0250 269° West 426 490 36,000  Level FlightAware ADS-B
Mon 09:36:17 PM 43.1200 -92.1230 268° West 427 491 36,000  Level FlightAware ADS-B
Mon 09:37:02 PM 43.1180 -92.2420 269° West 429 494 36,000  Level FlightAware ADS-B
Mon 09:37:47 PM 43.1160 -92.3660 269° West 430 495 36,000  Level FlightAware ADS-B
Mon 09:38:27 PM 43.1140 -92.4750 269° West 432 497 36,000  Level FlightAware ADS-B
Mon 09:39:12 PM 43.1120 -92.5960 269° West 433 498 36,000  Level FlightAware ADS-B
Mon 09:39:52 PM 43.1090 -92.7030 268° West 433 498 36,000  Level FlightAware ADS-B
Mon 09:40:32 PM 43.1070 -92.8140 269° West 431 496 36,000  Level FlightAware ADS-B
Mon 09:41:12 PM 43.1050 -92.9220 269° West 428 493 36,000  Level FlightAware ADS-B
Mon 09:41:57 PM 43.1020 -93.0440 268° West 424 488 36,000  Level FlightAware ADS-B
Mon 09:42:42 PM 43.0990 -93.1630 268° West 425 489 36,000  Level FlightAware ADS-B
Mon 09:43:22 PM 43.0960 -93.2690 268° West 424 488 36,000  Level FlightAware ADS-B
Mon 09:44:02 PM 43.0900 -93.3770 266° West 427 491 36,000  Level FlightAware ADS-B
Mon 09:44:47 PM 43.0790 -93.5010 263° West 427 491 36,000  Level FlightAware ADS-B
Mon 09:45:27 PM 43.0690 -93.6060 263° West 427 491 36,000  Level FlightAware ADS-B
Mon 09:46:07 PM 43.0590 -93.7130 263° West 427 491 36,000  Level FlightAware ADS-B
Mon 09:46:52 PM 43.0470 -93.8320 262° West 426 490 36,000  Level FlightAware ADS-B
Mon 09:47:32 PM 43.0370 -93.9370 263° West 426 490 36,000  Level FlightAware ADS-B
Mon 09:48:17 PM 43.0250 -94.0610 263° West 425 489 36,000  Level FlightAware ADS-B
Mon 09:48:47 PM 43.0180 -94.1350 263° West 424 488 36,000  Level FlightAware ADS-B
Mon 09:49:32 PM 43.0060 -94.2440 261° West 424 488 36,000  Level FlightAware ADS-B
Mon 09:50:22 PM 42.9920 -94.3860 262° West 423 487 36,000  Level FlightAware ADS-B
Mon 09:51:02 PM 42.9810 -94.4940 262° West 423 487 36,000  Level FlightAware ADS-B
Mon 09:51:47 PM 42.9690 -94.6120 262° West 423 487 36,000  Level FlightAware ADS-B
Mon 09:52:17 PM 42.9610 -94.6850 262° West 422 486 36,000  Level FlightAware ADS-B
Mon 09:53:02 PM 42.9490 -94.7930 261° West 422 486 36,000  Level FlightAware ADS-B
Mon 09:53:52 PM 42.9350 -94.9370 262° West 419 482 36,000  Level FlightAware ADS-B
Mon 09:54:32 PM 42.9240 -95.0370 261° West 418 481 36,000  Level FlightAware ADS-B
Mon 09:55:12 PM 42.9130 -95.1260 260° West 418 481 36,000  Level FlightAware ADS-B
Mon 09:55:52 PM 42.9030 -95.2140 261° West 418 481 36,000  Level FlightAware ADS-B
Mon 09:56:42 PM 42.8900 -95.3250 261° West 418 481 36,000  Level FlightAware ADS-B
Mon 09:57:22 PM 42.8800 -95.4140 261° West 418 481 36,000  Level FlightAware ADS-B
Mon 09:58:02 PM 42.8700 -95.5030 261° West 418 481 36,000  Level FlightAware ADS-B
Mon 09:58:42 PM 42.8590 -95.5910 260° West 418 481 36,000  Level FlightAware ADS-B
Mon 09:59:22 PM 42.8490 -95.6800 261° West 418 481 36,000  Level FlightAware ADS-B
Mon 10:00:02 PM 42.8390 -95.7680 261° West 418 481 36,000  Level FlightAware ADS-B
Mon 10:00:52 PM 42.8260 -95.8790 261° West 418 481 36,000  Level FlightAware ADS-B
Mon 10:01:32 PM 42.8150 -95.9670 260° West 418 481 36,000  Level FlightAware ADS-B
Mon 10:02:12 PM 42.8050 -96.0560 261° West 418 481 36,000  Level FlightAware ADS-B
Mon 10:02:52 PM 42.7950 -96.1450 261° West 418 481 36,000  Level FlightAware ADS-B
Mon 10:03:32 PM 42.7850 -96.2330 261° West 418 481 36,000  Level FlightAware ADS-B
Mon 10:04:39 PM 42.7189 -96.5831 261° West 416 479 36,000  Level Minneapolis Center
Mon 10:05:40 PM 42.6747 -96.7542 251° West 421 484 36,000  Level Minneapolis Center
Mon 10:06:41 PM 42.6358 -96.9017 250° West 418 481 36,000  Level Minneapolis Center
Mon 10:07:42 PM 42.5961 -97.0500 250° West 419 482 36,000  Level Minneapolis Center
Mon 10:08:43 PM 42.5561 -97.1972 250° West 417 480 36,000  Level Minneapolis Center
Mon 10:09:44 PM 42.5167 -97.3450 250° West 418 481 36,000  Level Minneapolis Center
Mon 10:10:45 PM 42.4767 -97.4922 250° West 418 481 36,000  Level Minneapolis Center
Mon 10:11:46 PM 42.4364 -97.6394 250° West 417 480 36,000  Level Minneapolis Center
Mon 10:12:47 PM 42.3969 -97.7864 250° West 418 481 36,000  Level Minneapolis Center
Mon 10:13:48 PM 42.3514 -97.9506 249° West 418 481 36,000  Level Minneapolis Center
Mon 10:14:49 PM 42.3100 -98.0972 249° West 419 482 36,000  Level Minneapolis Center
Mon 10:15:50 PM 42.2697 -98.2453 250° West 421 484 36,000  Level Minneapolis Center
Mon 10:16:51 PM 42.2275 -98.3919 249° West 421 484 36,000  Level Minneapolis Center
Mon 10:17:52 PM 42.1864 -98.5383 249° West 419 482 36,000  Level Minneapolis Center
Mon 10:18:53 PM 42.1447 -98.6858 249° West 421 484 36,000  Level Minneapolis Center
Mon 10:19:54 PM 42.1028 -98.8325 249° West 421 484 36,000  Level Minneapolis Center
Mon 10:20:55 PM 42.0608 -98.9792 249° West 421 484 36,000  Level Minneapolis Center
Mon 10:21:58 PM 42.0083 -99.1567 248° West 426 490 36,000  Level Denver Center
Mon 10:22:59 PM 41.9658 -99.3025 249° West 423 487 36,000  Level Denver Center
Mon 10:24:01 PM 41.9228 -99.4492 249° West 422 486 36,000  Level Denver Center
Mon 10:25:03 PM 41.8797 -99.5983 249° West 428 493 36,000  Level Denver Center
Mon 10:26:05 PM 41.8314 -99.7606 248° West 422 486 36,000  Level Denver Center
Mon 10:27:06 PM 41.7900 -99.8989 248° West 421 484 36,000  Level Denver Center
Mon 10:28:08 PM 41.7481 -100.0378 248° West 420 483 36,000  Level Denver Center
Mon 10:29:10 PM 41.7008 -100.1981 249° West 418 481 36,000  Level Denver Center
Mon 10:30:11 PM 41.6594 -100.3322 248° West 412 474 36,000  Level Denver Center
Mon 10:31:13 PM 41.6114 -100.4886 248° West 410 472 36,000  Level Denver Center
Mon 10:32:14 PM 41.5711 -100.6214 248° West 405 466 36,000 -231 Level Denver Center
Mon 10:37:42 PM 41.3100 -101.3810 248° West 412 474 34,500 -326 Descending FlightAware ADS-B
Mon 10:38:22 PM 41.2780 -101.4730 245° Southwest 413 475 34,000 -448 Descending FlightAware ADS-B
Mon 10:38:49 PM 41.2549 -101.5400 245° Southwest 412 474 34,000  Level FlightAware ADS-B
Mon 10:39:19 PM 41.2311 -101.6090 245° Southwest 411 473 34,000  Level FlightAware ADS-B
Mon 10:39:51 PM 41.2054 -101.6820 245° Southwest 411 473 34,000  Level FlightAware ADS-B
Mon 10:40:21 PM 41.1811 -101.7510 245° Southwest 411 473 34,000  Level FlightAware ADS-B
Mon 10:40:51 PM 41.1569 -101.8200 245° Southwest 410 472 34,000  Level FlightAware ADS-B
Mon 10:41:22 PM 41.1324 -101.8890 245° Southwest 412 474 34,000  Level FlightAware ADS-B
Mon 10:41:52 PM 41.1080 -101.9580 245° Southwest 412 474 34,000  Level FlightAware ADS-B
Mon 10:42:23 PM 41.0833 -102.0280 245° Southwest 413 475 34,000  Level FlightAware ADS-B
Mon 10:42:53 PM 41.0587 -102.0970 245° Southwest 413 475 34,000  Level FlightAware ADS-B
Mon 10:43:24 PM 41.0334 -102.1680 245° Southwest 413 475 34,000  Level FlightAware ADS-B
Mon 10:43:55 PM 41.0082 -102.2390 245° Southwest 418 481 34,000  Level FlightAware ADS-B
Mon 10:44:27 PM 40.9816 -102.3130 245° Southwest 417 480 34,000  Level FlightAware ADS-B
Mon 10:44:57 PM 40.9567 -102.3830 245° Southwest 415 478 34,000  Level FlightAware ADS-B
Mon 10:45:28 PM 40.9316 -102.4520 244° Southwest 416 479 34,000  Level FlightAware ADS-B
Mon 10:45:59 PM 40.9053 -102.5250 245° Southwest 417 480 34,000  Level FlightAware ADS-B
Mon 10:46:30 PM 40.8803 -102.5940 244° Southwest 417 480 34,000  Level FlightAware ADS-B
Mon 10:47:00 PM 40.8553 -102.6630 244° Southwest 417 480 34,000 -400 Level FlightAware ADS-B
Mon 10:47:30 PM 40.8299 -102.7340 245° Southwest 420 483 33,600 -885 Descending FlightAware ADS-B
Mon 10:48:01 PM 40.8044 -102.8030 244° Southwest 424 488 33,100 -984 Descending FlightAware ADS-B
Mon 10:48:31 PM 40.7785 -102.8740 244° Southwest 425 489 32,600 -1,000 Descending FlightAware ADS-B
Mon 10:49:01 PM 40.7530 -102.9440 244° Southwest 423 487 32,100 -915 Descending FlightAware ADS-B
Mon 10:49:30 PM 40.7280 -103.0120 244° Southwest 431 496 31,700 -915 Descending FlightAware ADS-B
Mon 10:50:00 PM 40.7017 -103.0830 244° Southwest 432 497 31,200 -968 Descending FlightAware ADS-B
Mon 10:50:32 PM 40.6741 -103.1580 244° Southwest 436 502 30,700 -952 Descending FlightAware ADS-B
Mon 10:51:03 PM 40.6473 -103.2310 244° Southwest 433 498 30,200 -984 Descending FlightAware ADS-B
Mon 10:51:33 PM 40.6205 -103.3030 244° Southwest 434 499 29,700 -1,180 Descending FlightAware ADS-B
Mon 10:52:04 PM 40.5930 -103.3770 244° Southwest 439 505 29,000 -2,361 Descending FlightAware ADS-B
Mon 10:52:34 PM 40.5663 -103.4490 244° Southwest 437 503 27,300 -3,148 Descending FlightAware ADS-B
Mon 10:53:05 PM 40.5396 -103.5200 244° Southwest 425 489 25,800 -2,852 Descending FlightAware ADS-B
Mon 10:53:35 PM 40.5132 -103.5900 244° Southwest 416 479 24,400 -2,800 Descending FlightAware ADS-B
Mon 10:54:05 PM 40.4879 -103.6580 244° Southwest 408 470 23,000 -2,754 Descending FlightAware ADS-B
Mon 10:54:36 PM 40.4628 -103.7250 244° Southwest 398 458 21,600 -2,656 Descending FlightAware ADS-B
Mon 10:55:06 PM 40.4384 -103.7900 244° Southwest 390 449 20,300 -2,164 Descending FlightAware ADS-B
Mon 10:55:37 PM 40.4145 -103.8530 244° Southwest 371 427 19,400 -1,345 Descending FlightAware ADS-B
Mon 10:56:04 PM 40.3946 -103.9050 243° Southwest 349 402 19,000 -842 Descending FlightAware ADS-B
Mon 10:56:34 PM 40.3736 -103.9610 244° Southwest 326 375 18,600 -698 Descending FlightAware ADS-B
Mon 10:56:47 PM 40.3654 -103.9830 244° Southwest 317 365 18,500 -353 Descending FlightAware ADS-B
Mon 10:56:51 PM 40.3628 -103.9910 247° West 312 359 18,500 -750 Level FlightAware ADS-B
Mon 10:57:03 PM 40.3586 -104.0120 255° West 300 345 18,300 -900 Descending FlightAware ADS-B
Mon 10:57:11 PM 40.3574 -104.0250 263° West 295 339 18,200 -1,538 Descending FlightAware ADS-B
Mon 10:57:42 PM 40.3567 -104.0800 269° West 293 337 17,300 -1,607 Descending FlightAware ADS-B
Mon 10:58:07 PM 40.3560 -104.1260 269° West 288 331 16,700 -964 Descending FlightAware ADS-B
Mon 10:58:38 PM 40.3554 -104.1770 269° West 273 314 16,400 -1,071 Descending FlightAware ADS-B
Mon 10:59:03 PM 40.3549 -104.2180 269° West 262 302 15,700 -1,607 Descending FlightAware ADS-B
Mon 10:59:34 PM 40.3541 -104.2650 269° West 255 293 14,900 -1,385 Descending FlightAware ADS-B
Mon 10:59:55 PM 40.3537 -104.2980 269° West 246 283 14,500 -913 Descending FlightAware ADS-B
Mon 11:00:20 PM 40.3533 -104.3340 269° West 234 269 14,200 -340 Descending FlightAware ADS-B
Mon 11:00:48 PM 40.3524 -104.3740 268° West 233 268 14,200 -508 Level FlightAware ADS-B
Mon 11:01:19 PM 40.3507 -104.4170 267° West 238 274 13,700 -1,158 Descending FlightAware ADS-B
Mon 11:01:45 PM 40.3496 -104.4550 268° West 240 276 13,100 -1,404 Descending FlightAware ADS-B
Mon 11:02:06 PM 40.3489 -104.4860 268° West 240 276 12,600 -1,588 Descending FlightAware ADS-B
Mon 11:02:19 PM 40.3488 -104.5050 270° West 240 276 12,200 -1,579 Descending FlightAware ADS-B
Mon 11:02:25 PM 40.3483 -104.5130 265° West 241 277 12,100 -1,333 Descending FlightAware ADS-B
Mon 11:02:28 PM 40.3474 -104.5180 257° West 240 276 12,000 -1,714 Descending FlightAware ADS-B
Mon 11:02:32 PM 40.3461 -104.5230 251° West 241 277 11,900 -1,500 Descending FlightAware ADS-B
Mon 11:02:36 PM 40.3441 -104.5280 242° Southwest 240 276 11,800 -1,714 Descending FlightAware ADS-B
Mon 11:02:39 PM 40.3420 -104.5320 235° Southwest 239 275 11,700 -1,355 Descending FlightAware ADS-B
Mon 11:03:07 PM 40.3217 -104.5630 229° Southwest 239 275 11,100 -1,222 Descending FlightAware ADS-B
Mon 11:03:33 PM 40.3025 -104.5920 229° Southwest 242 278 10,600 -980 Descending FlightAware ADS-B
Mon 11:03:56 PM 40.2864 -104.6150 227° Southwest 237 273 10,300 -973 Descending FlightAware ADS-B
Mon 11:04:10 PM 40.2757 -104.6310 229° Southwest 236 272 10,000 -1,333 Descending FlightAware ADS-B
Mon 11:04:14 PM 40.2730 -104.6340 220° Southwest 236 272 9,900 -1,500 Descending FlightAware ADS-B
Mon 11:04:18 PM 40.2691 -104.6380 218° Southwest 239 275 9,800 -1,500 Descending FlightAware ADS-B
Mon 11:04:22 PM 40.2658 -104.6410 215° Southwest 241 277 9,700 -1,286 Descending FlightAware ADS-B
Mon 11:04:32 PM 40.2551 -104.6480 207° Southwest 240 276 9,500 -923 Descending FlightAware ADS-B
Mon 11:04:48 PM 40.2399 -104.6580 207° Southwest 237 273 9,300 -692 Descending FlightAware ADS-B
Mon 11:04:58 PM 40.2300 -104.6650 208° Southwest 230 265 9,200 -316 Descending FlightAware ADS-B
Mon 11:05:07 PM 40.2222 -104.6700 206° Southwest 222 255 9,200  Level FlightAware ADS-B
Mon 11:05:21 PM 40.2095 -104.6780 206° Southwest 209 241 9,200  Level FlightAware ADS-B
Mon 11:05:26 PM 40.2044 -104.6800 197° South 205 236 9,200  Level FlightAware ADS-B
Mon 11:05:30 PM 40.2014 -104.6810 194° South 203 234 9,200  Level FlightAware ADS-B
Mon 11:05:34 PM 40.1980 -104.6820 193° South 202 232 9,200  Level FlightAware ADS-B
Mon 11:05:40 PM 40.1918 -104.6830 187° South 200 230 9,200  Level FlightAware ADS-B
Mon 11:05:51 PM 40.1820 -104.6840 184° South 197 227 9,200  Level FlightAware ADS-B
Mon 11:05:59 PM 40.1747 -104.6840 180° South 197 227 9,200 286 Level FlightAware ADS-B
Mon 11:06:12 PM 40.1624 -104.6840 180° South 200 230 9,300 250 Climbing FlightAware ADS-B
Mon 11:06:23 PM 40.1522 -104.6840 180° South 198 228 9,300  Level FlightAware ADS-B
Mon 11:06:35 PM 40.1414 -104.6840 180° South 198 228 9,300  Level FlightAware ADS-B
Mon 11:06:51 PM 40.1273 -104.6840 180° South 196 226 9,300 -261 Level FlightAware ADS-B
Mon 11:06:58 PM 40.1203 -104.6840 180° South 193 222 9,200 -261 Descending FlightAware ADS-B
Mon 11:07:14 PM 40.1067 -104.6840 180° South 192 221 9,200 -200 Level FlightAware ADS-B
Mon 11:07:28 PM 40.0938 -104.6850 183° South 195 224 9,100 -480 Descending FlightAware ADS-B
Mon 11:07:39 PM 40.0844 -104.6850 180° South 197 227 9,000 -900 Descending FlightAware ADS-B
Mon 11:07:48 PM 40.0762 -104.6850 180° South 197 227 8,800 -1,200 Descending FlightAware ADS-B
Mon 11:07:59 PM 40.0654 -104.6850 180° South 196 226 8,600 -857 Descending FlightAware ADS-B
Mon 11:08:09 PM 40.0567 -104.6840 175° South 196 226 8,500 -947 Descending FlightAware ADS-B
Mon 11:08:18 PM 40.0480 -104.6830 175° South 197 227 8,300 -1,263 Descending FlightAware ADS-B
Mon 11:08:28 PM 40.0396 -104.6830 180° South 198 228 8,100 -1,200 Descending FlightAware ADS-B
Mon 11:08:43 PM 40.0261 -104.6830 180° South 193 222 7,800 -923 Descending FlightAware ADS-B
Mon 11:08:54 PM 40.0159 -104.6830 180° South 192 221 7,700 -600 Descending FlightAware ADS-B
Mon 11:09:03 PM 40.0079 -104.6840 185° South 191 220 7,600 -900 Descending FlightAware ADS-B
Mon 11:09:14 PM 39.9982 -104.6840 180° South 185 213 7,400 -750 Descending FlightAware ADS-B
Mon 11:09:27 PM 39.9875 -104.6850 184° South 178 205 7,300 -750 Descending FlightAware ADS-B
Mon 11:09:38 PM 39.9791 -104.6860 185° South 171 197 7,100 -1,091 Descending FlightAware ADS-B
Mon 11:09:49 PM 39.9705 -104.6860 180° South 167 192 6,900 -1,000 Descending FlightAware ADS-B
Mon 11:10:02 PM 39.9606 -104.6860 180° South 162 186 6,700 -783 Descending FlightAware ADS-B
Mon 11:10:12 PM 39.9524 -104.6860 180° South 161 185 6,600 -632 Descending FlightAware ADS-B
Mon 11:10:21 PM 39.9463 -104.6860 180° South 161 185 6,500 -706 Descending FlightAware ADS-B
Mon 11:10:29 PM 39.9401 -104.6860 180° South 159 183 6,400 -800 Descending FlightAware ADS-B
Mon 11:10:36 PM 39.9349 -104.6860 180° South 160 184 6,300 -632 Descending FlightAware ADS-B
Mon 11:10:48 PM 39.9264 -104.6870 185° South 162 186 6,200 -750 Descending FlightAware ADS-B
Mon 11:11:00 PM 39.9169 -104.6870 180° South 164 189 6,000 -900 Descending FlightAware ADS-B
Mon 11:11:08 PM 39.9107 -104.6870 180° South 165 190 5,900 -800 Descending FlightAware ADS-B
Mon 11:11:15 PM 39.9052 -104.6870 180° South 165 190 5,800 -857 Descending FlightAware ADS-B
Mon 11:11:22 PM 39.9000 -104.6870 180° South 164 189 5,700 -857 Descending FlightAware ADS-B
Mon 11:11:29 PM 39.8952 -104.6870 180° South 164 189 5,600 -857 Descending FlightAware ADS-B

Login

Don't have an account? Register now (free) for customized features, flight alerts, and more!